Juan Herrero

Recruteur - Barcelona
13 Févr 2028
Dimanche
Processus

Personnalité

Adaptabilité (6) Ambition (18) Controverse (16) Loyauté (5) Pression (4) Professionnalisme (13) Sportivité (4) Tempérament (16)

Profil

Style d'entraînement Démocratique
Diplôme National A
Détermination 7
Gestion des joueurs 15
Motivation 11
Discipline 16
Satisfaction professionnelle
100%
Fatigue
0%
Rôle Recruteur
Salaire 45.2K p/s
Contrat 14.03.2028

Performance

Comportement Bon
Efficacité de l'entraînement
71%
Développement des joueurs
80%
Prévention des blessures
70%
Mise en place tactique
70%

Événements récents

Négociation de contrat entamée maintenant
A participé à une réunion de recrutement maintenant
A recommandé une cible de transfert maintenant
A recommandé une cible de transfert maintenant
Négociation de contrat entamée maintenant
Négociation de contrat entamée maintenant
Négociation de contrat entamée maintenant
Négociation de contrat entamée maintenant

Suivi en cours

99
Joueur Club Statut Capacité Confiance Observé Dernière observation Dernier vote
Nicolas Pépé Zaragoza Actif 142 / 144 76% 1 31.01.2028 Approuver
Josh King Newcastle United Négociation 145 / 149 40% 10 02.01.2028 -
Héctor Fort Real Sociedad Actif 137 / 145 40% 7 02.01.2028 -
Jorrel Hato Chelsea Actif 148 / 158 40% 7 02.01.2028 -
Pablo García Racing Santander Actif 125 / 134 40% 5 01.01.2028 -
João Simões Sporting CP Actif 134 / 144 40% 9 31.12.2027 -
Vitor Reis Manchester City Actif 136 / 144 40% 1 31.12.2027 -
Ethan Nwaneri Arsenal Actif 157 / 160 40% 11 28.12.2027 -
Eli Junior Kroupi Bournemouth Actif 140 / 150 40% 3 28.12.2027 -
Chris Rigg Sunderland Actif 135 / 144 40% 4 25.12.2027 -
Alphadjo Cissé Lecce Actif 131 / 135 40% 2 25.12.2027 -
Jofre Torrents Ajax Actif 133 / 136 40% 1 25.12.2027 -
Prince Amoako FC Copenhagen Actif 126 / 130 40% 4 24.12.2027 -
Edmund Baidoo St. Gallen Actif 127 / 132 40% 3 21.12.2027 -
Josh Acheampong Everton Actif 140 / 147 40% 5 18.12.2027 -
Tyrique George Everton Actif 127 / 132 40% 8 18.12.2027 -
Flávio Gonçalves Sporting CP Actif 130 / 133 40% 6 18.12.2027 -
Kendry Páez Chelsea Actif 131 / 141 40% 8 14.12.2027 -
Archie Gray Southampton Actif 148 / 156 40% 10 09.12.2027 -
Caleb Yirenkyi Coventry City Actif 145 / 147 40% 1 28.11.2027 -
Ollie Scarles West Ham United Actif 138 / 140 40% 2 24.11.2027 -
Sindre Walle Egeli Udinese Actif 140 / 141 40% 8 22.11.2027 -
Ryunosuke Sato Eibar Actif 138 / 136 40% 4 19.11.2027 -
Nhoa Sangui AS Nancy Actif 127 / 130 40% 1 17.11.2027 -
Roger Fernandes Galatasaray Actif 141 / 143 40% 3 12.11.2027 -
Jesús Rodríguez Como Actif 147 / 152 40% 3 08.11.2027 -
Andrija Bulatović Chamois Niortais Actif 122 / 133 40% 3 28.10.2027 -
Babis Kostoulas Oxford United Actif 138 / 146 40% 3 27.10.2027 -
Rio Ngumoha Plymouth Argyle Actif 142 / 147 40% 3 27.10.2027 -
Kirill Glebov CSKA Moscow Actif 131 / 133 40% 1 09.10.2027 -
Eliás Montiel Borussia Dortmund Actif 139 / 141 40% 4 18.09.2027 -
Thomas Jørgensen Monaco Actif 133 / 139 40% 1 18.09.2027 -
Jorge Salinas Racing Santander Actif 123 / 134 40% 1 15.09.2027 -
Oihan Sancet Athletic Bilbao Actif 159 / 160 76% 1 02.06.2027 Approuver
Marc Bernal Sevilla Actif 142 / 149 40% 2 01.06.2027 -
Lucas Høgsberg RC Strasbourg Actif 132 / 142 40% 1 01.06.2027 -
Louis Leroux FC Nantes Actif 127 / 130 40% 1 01.06.2027 -
Bence Dárdai VfL Wolfsburg Actif 133 / 136 40% 1 31.05.2027 -
Nico González Newcastle United Actif 165 / 161 40% 6 30.05.2027 -
André-Franck Zambo Anguissa Napoli Actif 162 / 160 40% 6 30.05.2027 -
Matthijs de Ligt Manchester United Actif 158 / 160 40% 2 30.05.2027 -
Marc Guéhi Manchester City Actif 165 / 167 40% 8 29.05.2027 -
Achraf Hakimi Paris Saint-Germain Actif 185 / 178 40% 3 29.05.2027 -
Fabián Manchester United Actif 165 / 164 40% 2 29.05.2027 -
Hugo Ekitiké Liverpool Actif 169 / 163 40% 9 28.05.2027 -
Nico O'Reilly Manchester City Actif 152 / 157 40% 4 28.05.2027 -
Gabriel Arsenal Actif 173 / 172 40% 7 28.05.2027 -
Yeremy Pino Crystal Palace Actif 153 / 151 40% 2 28.05.2027 -
Ryan Gravenberch Liverpool Actif 159 / 161 40% 2 28.05.2027 -
Xavi Simons Tottenham Actif 162 / 158 40% 5 26.05.2027 -
Manu Koné AS Roma Actif 169 / 164 40% 14 26.05.2027 -
William Saliba Arsenal Actif 177 / 176 40% 5 26.05.2027 -
Matheus Nunes Manchester City Actif 159 / 158 40% 5 24.05.2027 -
Boubacar Kamara Aston Villa Actif 168 / 164 40% 2 24.05.2027 -
Wesley Fofana Chelsea Actif 165 / 162 40% 4 23.05.2027 -
João Neves Paris Saint-Germain Actif 166 / 169 40% 8 22.05.2027 -
Alexis Mac Allister Liverpool Actif 162 / 161 40% 6 19.05.2027 -
Sandro Tonali Tottenham Actif 170 / 172 40% 6 18.05.2027 -
Jurriën Timber Arsenal Actif 159 / 162 40% 4 17.05.2027 -
Enzo Fernández Manchester City Actif 174 / 170 40% 3 12.05.2027 -
Rúben Dias Manchester City Actif 172 / 170 40% 5 10.05.2027 -
Vitinha Paris Saint-Germain Actif 176 / 179 40% 2 09.05.2027 -
Moisés Caicedo Chelsea Actif 173 / 170 40% 6 09.05.2027 -
Tino Livramento Newcastle United Actif 154 / 158 40% 3 06.05.2027 -
Elliot Anderson Manchester City Actif 158 / 155 40% 2 06.05.2027 -
Martín Zubimendi Arsenal Actif 164 / 164 40% 4 30.04.2027 -
Matías Soulé AS Roma Actif 153 / 157 40% 5 29.04.2027 -
Nico Paz Aston Villa Actif 163 / 163 40% 1 27.04.2027 -
Morgan Rogers Chelsea Actif 161 / 161 40% 4 26.04.2027 -
Miloš Kerkez Liverpool Actif 160 / 158 40% 5 24.04.2027 -
Dominik Szoboszlai Liverpool Actif 168 / 166 40% 2 23.04.2027 -
Adam Wharton Crystal Palace Actif 156 / 154 40% 3 21.04.2027 -
Yankuba Minteh Brighton Actif 149 / 154 40% 2 21.04.2027 -
Kobbie Mainoo Manchester United Actif 157 / 156 40% 2 20.04.2027 -
Joško Gvardiol Manchester City Actif 161 / 164 40% 3 17.04.2027 -
Rayan Cherki Manchester City Actif 161 / 165 40% 5 05.04.2027 -
Reece James Chelsea Actif 176 / 173 40% 1 30.03.2027 -
Youri Tielemans Manchester United Actif 165 / 161 40% 2 28.03.2027 -
Savinho Tottenham Actif 154 / 159 40% 2 26.03.2027 -
Amad Manchester United Actif 154 / 155 40% 2 26.03.2027 -
Bremer Juventus Actif 159 / 163 40% 2 24.03.2027 -
Kevin Fulham Actif 155 / 149 40% 1 12.03.2027 -
Kenan Yıldız Juventus Actif 158 / 166 40% 2 04.03.2027 -
Justo Giani Umraniyespor Actif 126 / 121 40% 5 18.01.2027 -
Ivo Mammini Beitar Jerusalem Actif 116 / 119 40% 3 25.12.2026 -
Vinícius Júnior Paris Saint-Germain Actif 179 / 174 40% 4 24.12.2026 -
Duk Atlas Actif 117 / 115 40% 3 18.12.2026 -
Matheus Cunha Manchester United Actif 159 / 156 40% 3 18.12.2026 -
Lucas Varaldo Morelia Actif 119 / 119 40% 3 18.12.2026 -
Iliman N'Diaye Everton Actif 163 / 157 40% 3 14.12.2026 -
Alejandro Piedrahita Deportivo Pereira Actif 123 / 123 40% 2 29.11.2026 -
Roberto Fernández Braga Actif 143 / 141 40% 1 29.11.2026 -
Gabriel Martinelli Arsenal Actif 165 / 162 40% 1 25.11.2026 -
Antoine Semenyo Manchester City Actif 159 / 157 40% 1 24.11.2026 -
Bradley Barcola Liverpool Actif 165 / 162 40% 2 23.11.2026 -
Kai Havertz Arsenal Actif 166 / 160 40% 1 12.11.2026 -
Caoimhin Kelleher Brentford Actif 152 / 149 40% 4 07.11.2026 -
Alexander Díaz Deportivo Riestra Actif 110 / 118 40% 1 20.10.2026 -
Ramiro Ruiz Rodríguez Atlético Tucumán Actif 115 / 121 40% 1 18.10.2026 -